createdAt,value
2017-12-11T00:01:07.568Z,99.99
2017-12-11T00:02:17.542Z,99.99
2017-12-11T00:03:27.525Z,99.99
2017-12-11T00:04:37.501Z,99.99
2017-12-11T00:05:47.223Z,99.99
2017-12-11T00:06:57.260Z,99.99
2017-12-11T00:08:07.240Z,99.99
2017-12-11T00:09:16.981Z,99.99
2017-12-11T00:10:26.956Z,99.99
2017-12-11T00:11:36.938Z,99.99
2017-12-11T00:12:46.652Z,99.99
2017-12-11T00:13:56.635Z,99.99
2017-12-11T00:15:06.616Z,99.99
2017-12-11T00:16:16.328Z,99.99
2017-12-11T00:17:25.777Z,99.99
2017-12-11T00:18:35.508Z,99.99
2017-12-11T00:19:45.490Z,99.99
2017-12-11T00:20:55.482Z,99.99
2017-12-11T00:22:05.460Z,99.99
2017-12-11T00:23:15.173Z,99.99
2017-12-11T00:24:25.154Z,99.99
2017-12-11T00:25:35.134Z,99.99
2017-12-11T00:26:45.117Z,99.99
2017-12-11T00:27:54.831Z,99.99
2017-12-11T00:29:04.809Z,99.99
2017-12-11T00:30:14.787Z,99.99
2017-12-11T00:31:24.766Z,99.99
2017-12-11T00:32:34.479Z,99.99
2017-12-11T00:33:44.460Z,99.99
2017-12-11T00:34:54.440Z,99.99
2017-12-11T00:36:04.167Z,99.99
2017-12-11T00:37:14.145Z,99.99
2017-12-11T00:38:24.132Z,99.99
2017-12-11T00:39:34.109Z,99.99
2017-12-11T00:40:44.085Z,99.99
2017-12-11T00:41:54.062Z,99.99
2017-12-11T00:43:04.045Z,99.99
2017-12-11T00:44:14.078Z,99.99
2017-12-11T00:45:24.063Z,99.99
2017-12-11T00:46:34.042Z,99.99
2017-12-11T00:47:44.032Z,99.99
2017-12-11T00:48:53.747Z,99.99
2017-12-11T00:50:03.459Z,99.99
2017-12-11T00:51:12.910Z,99.99
2017-12-11T00:52:22.887Z,99.99
2017-12-11T00:53:32.871Z,99.99
2017-12-11T00:54:42.849Z,99.99
2017-12-11T00:55:52.559Z,99.99
2017-12-11T00:57:02.534Z,99.99
2017-12-11T00:58:12.518Z,99.99
2017-12-11T00:59:22.230Z,99.99
2017-12-11T01:00:31.675Z,99.99
2017-12-11T01:01:41.660Z,99.99
2017-12-11T01:02:51.377Z,99.99
2017-12-11T01:04:01.089Z,99.99
2017-12-11T01:05:10.801Z,99.99
2017-12-11T01:06:20.785Z,99.99
2017-12-11T01:07:30.761Z,99.99
2017-12-11T01:08:40.741Z,99.99
2017-12-11T01:09:50.446Z,99.99
2017-12-11T01:11:00.164Z,99.99
2017-12-11T01:12:10.138Z,99.99
2017-12-11T01:13:20.120Z,99.99
2017-12-11T01:14:30.096Z,99.99
2017-12-11T01:15:40.074Z,99.99
2017-12-11T01:16:50.054Z,99.99
2017-12-11T01:18:00.127Z,99.99
2017-12-11T01:19:10.106Z,99.99
2017-12-11T01:20:20.085Z,99.99
2017-12-11T01:21:30.063Z,99.99
2017-12-11T01:22:40.048Z,99.99
2017-12-11T01:23:50.027Z,99.99
2017-12-11T01:25:00.009Z,99.99
2017-12-11T01:26:09.985Z,99.99
2017-12-11T01:27:19.959Z,99.99
2017-12-11T01:28:29.950Z,99.99
2017-12-11T01:29:39.928Z,99.99
2017-12-11T01:30:49.901Z,99.99
2017-12-11T01:31:59.688Z,99.99
2017-12-11T01:33:09.403Z,99.99
2017-12-11T01:34:19.381Z,99.99
2017-12-11T01:35:29.359Z,99.99
2017-12-11T01:36:39.068Z,99.99
2017-12-11T01:37:49.045Z,99.99
2017-12-11T01:38:59.021Z,99.99
2017-12-11T01:40:08.996Z,99.99
2017-12-11T01:41:18.974Z,99.99
2017-12-11T01:42:28.950Z,99.99
2017-12-11T01:43:38.993Z,99.99
2017-12-11T01:44:48.981Z,99.99
2017-12-11T01:45:59.017Z,99.99
2017-12-11T01:47:08.993Z,99.99
2017-12-11T01:48:18.967Z,99.99
2017-12-11T01:49:28.948Z,99.99
2017-12-11T01:50:38.943Z,99.99
2017-12-11T01:51:48.921Z,99.99
2017-12-11T01:52:58.902Z,99.99
2017-12-11T01:54:08.671Z,99.99
2017-12-11T01:55:18.659Z,99.99
2017-12-11T01:56:28.647Z,99.99
2017-12-11T01:57:38.621Z,99.99
2017-12-11T01:58:48.602Z,99.99
2017-12-11T01:59:58.311Z,99.99
2017-12-11T02:01:08.028Z,99.99
2017-12-11T02:02:17.740Z,99.99
2017-12-11T02:03:27.718Z,99.99
2017-12-11T02:04:37.695Z,99.99
2017-12-11T02:05:47.406Z,99.99
2017-12-11T02:06:57.385Z,99.99
2017-12-11T02:08:07.369Z,99.99
2017-12-11T02:09:17.346Z,99.99
2017-12-11T02:10:27.069Z,99.99
2017-12-11T02:11:37.064Z,99.99
2017-12-11T02:12:47.042Z,99.99
2017-12-11T02:13:56.762Z,99.99
2017-12-11T02:15:06.768Z,99.99
2017-12-11T02:16:16.811Z,99.99
2017-12-11T02:17:26.794Z,99.99
2017-12-11T02:18:36.771Z,99.99
2017-12-11T02:19:46.753Z,99.99
2017-12-11T02:20:56.735Z,99.99
2017-12-11T02:22:06.716Z,99.99
2017-12-11T02:23:16.690Z,99.99
2017-12-11T02:24:26.664Z,99.99
2017-12-11T02:25:36.641Z,99.99
2017-12-11T02:26:46.619Z,99.99
2017-12-11T02:27:56.342Z,99.99
2017-12-11T02:29:06.320Z,99.99
2017-12-11T02:30:16.034Z,99.99
2017-12-11T02:31:26.026Z,99.99
2017-12-11T02:32:35.863Z,99.99
2017-12-11T02:33:45.851Z,99.99
2017-12-11T02:34:55.833Z,99.99
2017-12-11T02:36:05.553Z,99.99
2017-12-11T02:37:15.291Z,99.99
2017-12-11T02:38:25.279Z,99.99
2017-12-11T02:39:35.319Z,99.99
2017-12-11T02:40:45.318Z,99.99
2017-12-11T02:41:55.330Z,99.99
2017-12-11T02:43:05.321Z,99.99
2017-12-11T02:44:15.299Z,99.99
2017-12-11T02:45:25.316Z,99.99
2017-12-11T02:46:35.330Z,99.99
2017-12-11T02:47:45.326Z,99.99
2017-12-11T02:48:55.305Z,99.99
2017-12-11T02:50:05.022Z,99.99
2017-12-11T02:51:14.744Z,99.99
2017-12-11T02:52:24.720Z,99.99
2017-12-11T02:53:34.698Z,99.99
2017-12-11T02:54:44.680Z,99.99
2017-12-11T02:55:54.394Z,99.99
2017-12-11T02:57:04.374Z,99.99
2017-12-11T02:58:14.092Z,99.99
2017-12-11T02:59:24.108Z,99.99
2017-12-11T03:00:34.083Z,99.99
2017-12-11T03:01:44.068Z,99.99
2017-12-11T03:02:54.058Z,99.99
2017-12-11T03:04:04.046Z,99.99
2017-12-11T03:05:14.022Z,99.99
2017-12-11T03:06:23.735Z,99.99
2017-12-11T03:07:33.713Z,99.99
2017-12-11T03:08:43.691Z,99.99
2017-12-11T03:09:53.916Z,99.99
2017-12-11T03:11:03.898Z,99.99
2017-12-11T03:12:13.610Z,99.99
2017-12-11T03:13:23.584Z,99.99
2017-12-11T03:14:33.575Z,99.99
2017-12-11T03:15:43.287Z,99.99
2017-12-11T03:16:52.732Z,99.99
2017-12-11T03:18:02.708Z,99.99
2017-12-11T03:19:12.431Z,99.99
2017-12-11T03:20:22.407Z,99.99
2017-12-11T03:21:32.398Z,99.99
2017-12-11T03:22:42.387Z,99.99
2017-12-11T03:23:52.373Z,99.99
2017-12-11T03:25:02.351Z,99.99
2017-12-11T03:26:12.335Z,99.99
2017-12-11T03:27:22.315Z,99.99
2017-12-11T03:28:32.291Z,99.99
2017-12-11T03:29:42.276Z,99.99
2017-12-11T03:30:52.255Z,99.99
2017-12-11T03:32:02.249Z,99.99
2017-12-11T03:33:11.966Z,99.99
2017-12-11T03:34:21.939Z,99.99
2017-12-11T03:35:31.915Z,99.99
2017-12-11T03:36:41.891Z,99.99
2017-12-11T03:37:51.658Z,99.99
2017-12-11T03:39:01.375Z,99.99
2017-12-11T03:40:11.091Z,99.99
2017-12-11T03:41:21.070Z,99.99
2017-12-11T03:42:31.044Z,99.99
2017-12-11T03:43:41.030Z,99.99
2017-12-11T03:44:51.007Z,99.99
2017-12-11T03:46:01.044Z,99.99
2017-12-11T03:47:11.028Z,99.99
2017-12-11T03:48:21.013Z,99.99
2017-12-11T03:49:30.991Z,99.99
2017-12-11T03:50:40.968Z,99.99
2017-12-11T03:51:50.946Z,99.99
2017-12-11T03:53:00.662Z,99.99
2017-12-11T03:54:10.652Z,99.99
2017-12-11T03:55:20.628Z,99.99
2017-12-11T03:56:30.612Z,99.99
2017-12-11T03:57:40.586Z,99.99
2017-12-11T03:58:50.570Z,99.99
2017-12-11T04:00:00.546Z,99.99
2017-12-11T04:03:42.564Z,99.99
2017-12-11T04:04:52.545Z,99.99
2017-12-11T04:06:02.520Z,99.99
2017-12-11T04:07:12.236Z,99.99
2017-12-11T04:08:22.218Z,99.99
2017-12-11T04:09:31.928Z,99.99
2017-12-11T04:10:41.902Z,99.99
2017-12-11T04:11:51.878Z,99.99
2017-12-11T04:13:01.592Z,99.99
2017-12-11T04:14:11.039Z,99.99
2017-12-11T04:15:21.025Z,99.99
2017-12-11T04:16:31.069Z,99.99
2017-12-11T04:17:40.783Z,99.99
2017-12-11T04:18:50.764Z,99.99
2017-12-11T04:20:00.745Z,99.99
2017-12-11T04:21:10.458Z,99.99
2017-12-11T04:22:20.438Z,99.99
2017-12-11T04:23:30.425Z,99.99
2017-12-11T04:24:40.428Z,99.99
2017-12-11T04:25:50.428Z,99.99
2017-12-11T04:27:00.406Z,99.99
2017-12-11T04:28:10.385Z,99.99
2017-12-11T04:29:20.098Z,99.99
2017-12-11T04:30:29.872Z,99.99
2017-12-11T04:31:39.851Z,99.99
2017-12-11T04:32:49.829Z,99.99
2017-12-11T04:33:59.544Z,99.99
2017-12-11T04:35:09.520Z,99.99
2017-12-11T04:36:19.500Z,99.99
2017-12-11T04:37:29.521Z,99.99
2017-12-11T04:38:39.514Z,99.99
2017-12-11T04:39:49.495Z,99.99
2017-12-11T04:40:59.475Z,99.99
2017-12-11T04:42:09.188Z,99.99
2017-12-11T04:43:19.168Z,99.99
2017-12-11T04:44:28.877Z,99.99
2017-12-11T04:45:38.854Z,99.99
2017-12-11T04:46:48.831Z,99.99
2017-12-11T04:47:58.540Z,99.99
2017-12-11T04:49:08.251Z,99.99
2017-12-11T04:50:18.228Z,99.99
2017-12-11T04:51:28.202Z,99.99
2017-12-11T04:52:37.916Z,99.99
2017-12-11T04:53:47.900Z,99.99
2017-12-11T04:54:57.879Z,99.99
2017-12-11T04:56:07.653Z,99.99
2017-12-11T04:57:17.097Z,99.99
2017-12-11T04:58:27.075Z,99.99
2017-12-11T04:59:37.055Z,99.99
2017-12-11T05:00:47.043Z,99.99
2017-12-11T05:01:57.027Z,99.99
2017-12-11T05:03:06.749Z,99.99
2017-12-11T05:04:16.736Z,99.99
2017-12-11T05:05:26.715Z,99.99
2017-12-11T05:06:36.697Z,99.99
2017-12-11T05:07:46.680Z,99.99
2017-12-11T05:08:56.668Z,99.99
2017-12-11T05:10:06.115Z,99.99
2017-12-11T05:11:16.101Z,99.99
2017-12-11T05:12:25.813Z,99.99
2017-12-11T05:13:35.803Z,99.99
2017-12-11T05:14:45.784Z,99.99
2017-12-11T05:15:55.815Z,99.99
2017-12-11T05:17:05.793Z,99.99
2017-12-11T05:18:15.769Z,99.99
2017-12-11T05:19:25.755Z,99.99
2017-12-11T05:20:35.798Z,99.99
2017-12-11T05:21:45.509Z,99.99
2017-12-11T05:22:55.489Z,99.99
2017-12-11T05:24:05.200Z,99.99
2017-12-11T05:25:15.178Z,99.99
2017-12-11T05:26:24.898Z,99.99
2017-12-11T05:27:34.877Z,99.99
2017-12-11T05:28:44.891Z,99.99
2017-12-11T05:29:54.869Z,99.99
2017-12-11T05:31:04.580Z,99.99
2017-12-11T05:32:14.354Z,99.99
2017-12-11T05:33:23.802Z,99.99
2017-12-11T05:34:33.783Z,99.99
2017-12-11T05:35:43.815Z,99.99
2017-12-11T05:36:53.796Z,99.99
2017-12-11T05:38:03.620Z,99.99
2017-12-11T05:39:13.291Z,99.99
2017-12-11T05:40:23.270Z,99.99
2017-12-11T05:41:33.258Z,99.99
2017-12-11T05:42:43.247Z,99.99
2017-12-11T05:43:52.968Z,99.99
2017-12-11T05:45:02.957Z,99.99
2017-12-11T05:46:12.670Z,99.99
2017-12-11T05:47:22.651Z,99.99
2017-12-11T05:48:32.358Z,99.99
2017-12-11T05:49:42.343Z,99.99
2017-12-11T05:50:52.422Z,99.99
2017-12-11T05:52:02.404Z,99.99
2017-12-11T05:53:11.587Z,99.99
2017-12-11T05:54:21.569Z,99.99
2017-12-11T05:55:31.552Z,99.99
2017-12-11T05:56:41.542Z,99.99
2017-12-11T05:57:51.521Z,99.99
2017-12-11T05:59:01.506Z,99.99
2017-12-11T06:00:11.478Z,99.99
2017-12-11T06:01:21.452Z,99.99
2017-12-11T06:02:31.430Z,99.99
2017-12-11T06:03:41.406Z,99.99
2017-12-11T06:04:51.397Z,99.99
2017-12-11T06:06:01.374Z,99.99
2017-12-11T06:07:11.103Z,99.99
2017-12-11T06:08:20.817Z,99.99
2017-12-11T06:09:30.525Z,99.99
2017-12-11T06:10:40.508Z,99.99
2017-12-11T06:11:50.482Z,99.99
2017-12-11T06:13:00.530Z,99.99
2017-12-11T06:14:09.978Z,99.99
2017-12-11T06:15:19.975Z,99.99
2017-12-11T06:16:29.957Z,99.99
2017-12-11T06:17:39.936Z,99.99
2017-12-11T06:18:49.913Z,99.99
2017-12-11T06:19:59.901Z,99.99
2017-12-11T06:21:09.887Z,99.99
2017-12-11T06:22:19.866Z,99.99
2017-12-11T06:23:29.846Z,99.99
2017-12-11T06:24:39.879Z,99.99
2017-12-11T06:25:49.852Z,99.99
2017-12-11T06:26:59.563Z,99.99
2017-12-11T06:28:09.538Z,99.99
2017-12-11T06:29:19.517Z,99.99
2017-12-11T06:30:29.553Z,99.99
2017-12-11T06:31:39.264Z,99.99
2017-12-11T06:32:49.252Z,99.99
2017-12-11T06:33:59.226Z,99.99
2017-12-11T06:35:08.954Z,99.99
2017-12-11T06:36:18.931Z,99.99
2017-12-11T06:37:28.644Z,99.99
2017-12-11T06:38:38.626Z,99.99
2017-12-11T06:39:48.599Z,99.99
2017-12-11T06:40:58.574Z,99.99
2017-12-11T06:42:08.292Z,99.99
2017-12-11T06:43:17.737Z,99.99
2017-12-11T06:44:27.448Z,99.99
2017-12-11T06:45:37.163Z,99.99
2017-12-11T06:46:47.142Z,99.99
2017-12-11T06:47:56.859Z,99.99
2017-12-11T06:49:06.860Z,99.99
2017-12-11T06:50:16.842Z,99.99
2017-12-11T06:51:26.879Z,99.99
2017-12-11T06:52:36.592Z,99.99
2017-12-11T06:53:46.327Z,99.99
2017-12-11T06:54:56.324Z,99.99
2017-12-11T06:56:06.037Z,99.99
2017-12-11T06:57:16.015Z,99.99
2017-12-11T06:58:25.990Z,99.99
2017-12-11T06:59:35.974Z,99.99
2017-12-11T07:00:45.955Z,99.99
2017-12-11T07:01:55.951Z,99.99
2017-12-11T07:03:05.937Z,99.99
2017-12-11T07:04:15.929Z,99.99
2017-12-11T07:05:25.905Z,99.99
2017-12-11T07:06:35.613Z,99.99
2017-12-11T07:07:45.590Z,99.99
2017-12-11T07:08:55.567Z,99.99
2017-12-11T07:10:05.279Z,99.99
2017-12-11T07:11:15.254Z,99.99
2017-12-11T07:12:24.970Z,99.99
2017-12-11T07:13:34.953Z,99.99
2017-12-11T07:14:44.934Z,99.99
2017-12-11T07:15:54.989Z,99.99
2017-12-11T07:17:04.972Z,99.99
2017-12-11T07:18:14.960Z,99.99
2017-12-11T07:19:24.679Z,99.99
2017-12-11T07:20:34.663Z,99.99
2017-12-11T07:21:44.641Z,99.99
2017-12-11T07:22:54.678Z,99.99
2017-12-11T07:24:04.662Z,99.99
2017-12-11T07:25:14.111Z,99.99
2017-12-11T07:26:24.101Z,99.99
2017-12-11T07:27:34.082Z,99.99
2017-12-11T07:28:44.070Z,99.99
2017-12-11T07:29:54.048Z,99.99
2017-12-11T07:31:04.045Z,99.99
2017-12-11T07:32:14.089Z,99.99
2017-12-11T07:33:24.066Z,99.99
2017-12-11T07:34:34.050Z,99.99
2017-12-11T07:35:43.501Z,99.99
2017-12-11T07:36:53.478Z,99.99
2017-12-11T07:38:03.459Z,99.99
2017-12-11T07:39:13.177Z,99.99
2017-12-11T07:40:23.163Z,99.99
2017-12-11T07:41:33.152Z,99.99
2017-12-11T07:42:43.133Z,99.99
2017-12-11T07:43:53.125Z,99.99
2017-12-11T07:45:02.849Z,99.99
2017-12-11T07:46:12.831Z,99.99
2017-12-11T07:47:22.546Z,99.99
2017-12-11T07:48:32.258Z,99.99
2017-12-11T07:49:42.240Z,99.99
2017-12-11T07:50:52.228Z,99.99
2017-12-11T07:52:01.951Z,99.99
2017-12-11T07:53:11.665Z,99.99
2017-12-11T07:54:21.385Z,99.99
2017-12-11T07:55:31.369Z,99.99
2017-12-11T07:56:41.348Z,99.99
2017-12-11T07:57:51.326Z,99.99
2017-12-11T07:59:01.305Z,99.99
2017-12-11T08:00:11.020Z,99.99
2017-12-11T08:01:20.748Z,99.99
2017-12-11T08:02:30.467Z,99.99
2017-12-11T08:03:40.447Z,99.99
2017-12-11T08:04:50.164Z,99.99
2017-12-11T08:05:59.880Z,99.99
2017-12-11T08:07:09.857Z,99.99
2017-12-11T08:08:19.840Z,99.99
2017-12-11T08:09:29.822Z,99.99
2017-12-11T08:10:39.802Z,99.99
2017-12-11T08:11:49.786Z,99.99
2017-12-11T08:12:59.506Z,99.99
2017-12-11T08:14:13.230Z,99.99
2017-12-11T08:15:23.220Z,99.99
2017-12-11T08:16:33.207Z,99.99
2017-12-11T08:17:43.194Z,99.99
2017-12-11T08:18:53.192Z,99.99
2017-12-11T08:20:03.176Z,99.99
2017-12-11T08:21:13.172Z,99.99
2017-12-11T08:22:23.160Z,99.99
2017-12-11T08:23:33.139Z,99.99
2017-12-11T08:24:42.872Z,99.99
2017-12-11T08:25:52.889Z,99.99
2017-12-11T08:27:02.881Z,99.99
2017-12-11T08:28:12.600Z,99.99
2017-12-11T08:29:22.625Z,99.99
2017-12-11T08:30:32.606Z,99.99
2017-12-11T08:31:42.591Z,99.99
2017-12-11T08:32:52.304Z,99.99
2017-12-11T08:34:02.022Z,99.99
2017-12-11T08:35:12.000Z,99.99
2017-12-11T08:36:21.976Z,99.99
2017-12-11T08:37:32.018Z,99.99
2017-12-11T08:38:41.995Z,99.99
2017-12-11T08:39:52.032Z,99.99
2017-12-11T08:41:02.012Z,99.99
2017-12-11T08:42:12.007Z,99.99
2017-12-11T08:43:21.993Z,99.99
2017-12-11T08:44:31.972Z,99.99
2017-12-11T08:45:41.959Z,99.99
2017-12-11T08:46:52.035Z,99.99
2017-12-11T08:48:01.755Z,99.99
2017-12-11T08:49:11.733Z,99.99
2017-12-11T08:50:21.720Z,99.99
2017-12-11T08:51:31.702Z,99.99
2017-12-11T08:52:41.682Z,99.99
2017-12-11T08:53:51.661Z,99.99
2017-12-11T08:55:01.642Z,99.99
2017-12-11T08:56:11.098Z,99.99
2017-12-11T08:57:20.812Z,99.99
2017-12-11T08:58:30.528Z,99.99
2017-12-11T08:59:40.242Z,99.99
2017-12-11T09:00:50.221Z,99.99
2017-12-11T09:02:00.209Z,99.99
2017-12-11T09:03:10.190Z,99.99
2017-12-11T09:04:19.916Z,99.99
2017-12-11T09:05:29.894Z,99.99
2017-12-11T09:06:40.833Z,99.99
2017-12-11T09:07:50.545Z,99.99
2017-12-11T09:09:00.534Z,99.99
2017-12-11T09:10:10.525Z,99.99
2017-12-11T09:11:20.502Z,99.99
2017-12-11T09:12:30.486Z,99.99
2017-12-11T09:13:40.466Z,99.99
2017-12-11T09:14:50.451Z,99.99
2017-12-11T09:16:00.431Z,99.99
2017-12-11T09:17:10.441Z,99.99
2017-12-11T09:18:20.426Z,99.99
2017-12-11T09:19:30.141Z,99.99
2017-12-11T09:20:40.124Z,99.99
2017-12-11T09:21:49.852Z,99.99
2017-12-11T09:22:59.833Z,99.99
2017-12-11T09:24:09.813Z,99.99
2017-12-11T09:25:19.796Z,99.99
2017-12-11T09:26:29.777Z,99.99
2017-12-11T09:27:39.760Z,99.99
2017-12-11T09:28:49.746Z,99.99
2017-12-11T09:29:59.730Z,99.99
2017-12-11T09:31:09.709Z,99.99
2017-12-11T09:32:19.424Z,99.99
2017-12-11T09:33:29.136Z,99.99
2017-12-11T09:34:39.114Z,99.99
2017-12-11T09:35:49.093Z,99.99
2017-12-11T09:36:59.086Z,99.99
2017-12-11T09:38:09.068Z,99.99
2017-12-11T09:39:19.049Z,99.99
2017-12-11T09:40:29.083Z,99.99
2017-12-11T09:41:39.069Z,99.99
2017-12-11T09:42:49.049Z,99.99
2017-12-11T09:43:58.764Z,99.99
2017-12-11T09:45:08.790Z,99.99
2017-12-11T09:46:18.513Z,99.99
2017-12-11T09:47:28.499Z,99.99
2017-12-11T09:48:38.479Z,99.99
2017-12-11T09:49:48.463Z,99.99
2017-12-11T09:50:58.451Z,99.99
2017-12-11T09:52:08.433Z,99.99
2017-12-11T09:53:18.146Z,99.99
2017-12-11T09:54:27.860Z,99.99
2017-12-11T09:55:37.843Z,99.99
2017-12-11T09:56:47.822Z,99.99
2017-12-11T09:57:57.804Z,99.99
2017-12-11T09:59:07.518Z,99.99
2017-12-11T10:00:17.230Z,99.99
2017-12-11T10:01:27.207Z,99.99
2017-12-11T10:02:37.195Z,99.99
2017-12-11T10:03:47.175Z,99.99
2017-12-11T10:04:59.155Z,99.99
2017-12-11T10:06:09.149Z,99.99
2017-12-11T10:07:19.133Z,99.99
2017-12-11T10:08:28.852Z,99.99
2017-12-11T10:09:38.606Z,99.99
2017-12-11T10:10:48.618Z,99.99
2017-12-11T10:11:58.332Z,99.99
2017-12-11T10:13:08.307Z,99.99
2017-12-11T10:14:18.288Z,99.99
2017-12-11T10:15:28.271Z,99.99
2017-12-11T10:16:37.986Z,99.99
2017-12-11T10:17:47.972Z,99.99
2017-12-11T10:18:58.018Z,99.99
2017-12-11T10:20:07.739Z,99.99
2017-12-11T10:21:17.732Z,99.84
2017-12-11T10:22:27.720Z,99.84
2017-12-11T10:23:37.444Z,99.65
2017-12-11T10:24:47.427Z,99.99
2017-12-11T10:25:57.407Z,99.99
2017-12-11T10:27:07.125Z,99.99
2017-12-11T10:28:17.110Z,99.74
2017-12-11T10:29:26.563Z,99.55
2017-12-11T10:30:36.569Z,99.99
2017-12-11T10:31:46.553Z,99.99
2017-12-11T10:32:56.532Z,99.84
2017-12-11T10:34:06.513Z,99.99
2017-12-11T10:35:16.495Z,99.84
2017-12-11T10:36:26.211Z,99.84
2017-12-11T10:37:36.197Z,99.18
2017-12-11T10:38:46.180Z,99.18
2017-12-11T10:39:56.161Z,99.37
2017-12-11T10:41:05.612Z,99.74
2017-12-11T10:42:15.327Z,99.99
2017-12-11T10:43:25.047Z,99.84
2017-12-11T10:44:35.025Z,99.65
2017-12-11T10:45:45.011Z,99.93
2017-12-11T10:46:54.993Z,99.99
2017-12-11T10:48:04.978Z,99.99
2017-12-11T10:49:14.966Z,99.99
2017-12-11T10:50:24.736Z,99.99
2017-12-11T10:51:34.723Z,99.99
2017-12-11T10:52:44.705Z,99.99
2017-12-11T10:53:54.693Z,99.99
2017-12-11T10:55:04.670Z,99.84
2017-12-11T10:56:14.387Z,99.84
2017-12-11T10:57:24.102Z,99.65
2017-12-11T10:58:34.080Z,99.93
2017-12-11T10:59:44.062Z,99.93
2017-12-11T11:00:53.777Z,99.27
2017-12-11T11:02:03.765Z,98.71
2017-12-11T11:03:13.748Z,99.18
2017-12-11T11:04:23.724Z,99.74
2017-12-11T11:05:33.696Z,99.74
2017-12-11T11:06:43.416Z,99.46
2017-12-11T11:07:53.409Z,98.9
2017-12-11T11:09:03.397Z,99.93
2017-12-11T11:10:13.448Z,99.18
2017-12-11T11:11:23.431Z,98.9
2017-12-11T11:12:33.411Z,98.42
2017-12-11T11:13:42.875Z,98.61
2017-12-11T11:14:52.860Z,98.61
2017-12-11T11:16:02.910Z,98.33
2017-12-11T11:17:12.892Z,98.61
2017-12-11T11:18:22.610Z,99.13
2017-12-11T11:19:32.324Z,99.04
2017-12-11T11:20:42.310Z,98.66
2017-12-11T11:21:52.379Z,98.85
2017-12-11T11:23:02.370Z,98.47
2017-12-11T11:24:12.356Z,97.62
2017-12-11T11:25:22.334Z,97.91
2017-12-11T11:26:32.329Z,98.1
2017-12-11T11:27:42.045Z,97.91
2017-12-11T11:28:52.026Z,97.72
2017-12-11T11:30:02.013Z,97.91
2017-12-11T11:31:12.006Z,98.57
2017-12-11T11:32:21.453Z,97.62
2017-12-11T11:33:31.441Z,97.91
2017-12-11T11:34:41.427Z,97.43
2017-12-11T11:35:51.409Z,97.62
2017-12-11T11:37:01.390Z,97.24
2017-12-11T11:38:11.372Z,97.24
2017-12-11T11:39:21.358Z,97.24
2017-12-11T11:40:30.808Z,96.77
2017-12-11T11:41:40.796Z,97.15
2017-12-11T11:42:50.783Z,97.24
2017-12-11T11:44:00.762Z,97.15
2017-12-11T11:45:10.480Z,97.1
2017-12-11T11:46:20.204Z,97.19
2017-12-11T11:47:29.914Z,96.91
2017-12-11T11:48:39.630Z,97.19
2017-12-11T11:49:49.611Z,97.38
2017-12-11T11:50:59.594Z,98.04
2017-12-11T11:52:09.576Z,97.57
2017-12-11T11:53:19.552Z,98.04
2017-12-11T11:54:28.999Z,97.85
2017-12-11T11:55:38.989Z,97.24
2017-12-11T11:56:48.701Z,96.68
2017-12-11T11:57:58.678Z,96.3
2017-12-11T11:59:08.660Z,96.2
2017-12-11T12:00:18.689Z,96.06
2017-12-11T12:01:28.666Z,95.78
2017-12-11T12:02:38.645Z,94.93
2017-12-11T12:03:48.633Z,93.13
2017-12-11T12:04:58.730Z,92.47
2017-12-11T12:06:08.708Z,92
2017-12-11T12:07:18.746Z,92
2017-12-11T12:08:28.725Z,92.1
2017-12-11T12:09:38.711Z,92.19
2017-12-11T12:10:48.743Z,91.34
2017-12-11T12:11:58.305Z,91.72
2017-12-11T12:13:08.296Z,91.15
2017-12-11T12:14:18.012Z,91.53
2017-12-11T12:15:28.003Z,91.15
2017-12-11T12:16:37.982Z,91.91
2017-12-11T12:17:47.969Z,91.25
2017-12-11T12:18:57.968Z,91.53
2017-12-11T12:20:07.680Z,92.05
2017-12-11T12:21:17.661Z,92.24
2017-12-11T12:22:27.646Z,92.24
2017-12-11T12:23:37.630Z,92.33
2017-12-11T12:24:47.615Z,92.71
2017-12-11T12:25:57.611Z,92.24
2017-12-11T12:27:07.588Z,92.33
2017-12-11T12:28:17.566Z,92.14
2017-12-11T12:29:27.546Z,92.24
2017-12-11T12:30:37.776Z,92.9
2017-12-11T12:31:47.773Z,92.9
2017-12-11T12:32:57.752Z,92.9
2017-12-11T12:34:07.542Z,93.94
2017-12-11T12:35:17.527Z,93.75
2017-12-11T12:36:27.502Z,94.32
2017-12-11T12:37:37.215Z,94.22
2017-12-11T12:38:47.198Z,93.94
2017-12-11T12:39:57.176Z,93.99
2017-12-11T12:41:07.164Z,95.4
2017-12-11T12:42:17.141Z,95.5
2017-12-11T12:43:26.856Z,95.78
2017-12-11T12:44:36.302Z,96.34
2017-12-11T12:45:46.289Z,96.63
2017-12-11T12:46:56.272Z,96.91
2017-12-11T12:48:06.344Z,96.81
2017-12-11T12:49:16.326Z,97.29
2017-12-11T12:50:26.307Z,97.1
2017-12-11T12:51:36.292Z,97.85
2017-12-11T12:52:46.274Z,97.85
2017-12-11T12:53:56.252Z,98.52
2017-12-11T12:55:05.967Z,98.71
2017-12-11T12:56:15.686Z,97.85
2017-12-11T12:57:25.669Z,97.76
2017-12-11T12:58:35.653Z,97.67
2017-12-11T12:59:45.638Z,97.48
2017-12-11T13:00:55.625Z,97.76
2017-12-11T13:02:05.612Z,98.14
2017-12-11T13:03:15.602Z,98.61
2017-12-11T13:04:25.585Z,98.52
2017-12-11T13:05:35.296Z,98.23
2017-12-11T13:06:45.277Z,98.33
2017-12-11T13:07:55.256Z,98.04
2017-12-11T13:09:05.233Z,98.8
2017-12-11T13:10:15.216Z,98.99
2017-12-11T13:11:24.669Z,99.37
2017-12-11T13:12:34.692Z,98.9
2017-12-11T13:13:44.688Z,99.18
2017-12-11T13:14:54.674Z,99.46
2017-12-11T13:16:04.654Z,99.27
2017-12-11T13:17:14.639Z,99.08
2017-12-11T13:18:24.634Z,99.65
2017-12-11T13:19:34.354Z,99.55
2017-12-11T13:20:44.335Z,99.18
2017-12-11T13:21:54.319Z,98.61
2017-12-11T13:23:04.305Z,99.27
2017-12-11T13:24:14.292Z,98.9
2017-12-11T13:25:24.268Z,99.27
2017-12-11T13:26:33.718Z,99.84
2017-12-11T13:27:43.718Z,99.74
2017-12-11T13:28:53.489Z,99.08
2017-12-11T13:30:03.474Z,99.18
2017-12-11T13:31:13.197Z,99.18
2017-12-11T13:32:23.181Z,98.99
2017-12-11T13:33:32.908Z,99.08
2017-12-11T13:34:42.623Z,98.61
2017-12-11T13:35:52.070Z,99.08
2017-12-11T13:37:02.104Z,99.18
2017-12-11T13:38:12.082Z,99.65
2017-12-11T13:39:21.794Z,99.55
2017-12-11T13:40:31.779Z,99.65
2017-12-11T13:41:41.763Z,99.84
2017-12-11T13:42:51.751Z,99.99
2017-12-11T13:44:01.739Z,99.99
2017-12-11T13:45:11.735Z,99.99
2017-12-11T13:46:21.183Z,99.99
2017-12-11T13:47:31.166Z,99.99
2017-12-11T13:48:40.883Z,99.99
2017-12-11T13:49:50.865Z,99.84
2017-12-11T13:51:00.846Z,99.84
2017-12-11T13:52:10.564Z,99.99
2017-12-11T13:53:20.284Z,99.99
2017-12-11T13:54:30.264Z,99.84
2017-12-11T13:55:39.718Z,99.74
2017-12-11T13:56:49.698Z,99.84
2017-12-11T13:57:59.674Z,99.65
2017-12-11T13:59:09.757Z,99.27
2017-12-11T14:00:19.741Z,99.37
2017-12-11T14:01:29.722Z,99.37
2017-12-11T14:02:39.453Z,99.18
2017-12-11T14:03:49.435Z,99.46
2017-12-11T14:04:58.893Z,99.74
2017-12-11T14:06:08.884Z,99.93
2017-12-11T14:07:18.869Z,99.99
2017-12-11T14:08:28.853Z,99.99
2017-12-11T14:09:38.840Z,99.99
2017-12-11T14:10:48.822Z,99.99
2017-12-11T14:11:58.806Z,99.99
2017-12-11T14:13:08.791Z,99.99
2017-12-11T14:14:18.780Z,99.99
2017-12-11T14:15:28.760Z,99.99
2017-12-11T14:16:38.474Z,99.99
2017-12-11T14:17:48.454Z,99.99
2017-12-11T14:18:57.903Z,99.99
2017-12-11T14:20:07.882Z,99.84
2017-12-11T14:21:17.870Z,99.74
2017-12-11T14:22:27.861Z,99.99
2017-12-11T14:23:37.853Z,99.74
2017-12-11T14:24:47.836Z,99.65
2017-12-11T14:25:57.548Z,99.74
2017-12-11T14:27:07.266Z,99.84
2017-12-11T14:28:17.256Z,99.99
2017-12-11T14:29:27.241Z,99.99
2017-12-11T14:30:36.955Z,99.99
2017-12-11T14:31:46.936Z,99.99
2017-12-11T14:32:56.929Z,99.99
2017-12-11T14:34:06.646Z,99.99
2017-12-11T14:35:16.635Z,99.99
2017-12-11T14:36:26.349Z,99.99
2017-12-11T14:37:36.064Z,99.99
2017-12-11T14:38:45.779Z,99.99
2017-12-11T14:39:55.765Z,99.99
2017-12-11T14:41:05.755Z,99.99
2017-12-11T14:42:15.737Z,99.99
2017-12-11T14:43:25.456Z,99.99
2017-12-11T14:44:35.439Z,99.99
2017-12-11T14:45:45.429Z,99.99
2017-12-11T14:46:55.486Z,99.99
2017-12-11T14:48:05.471Z,99.99
2017-12-11T14:49:15.185Z,99.99
2017-12-11T14:50:25.168Z,99.99
2017-12-11T14:51:34.880Z,99.99
2017-12-11T14:52:44.866Z,99.99
2017-12-11T14:53:54.842Z,99.99
2017-12-11T14:55:04.824Z,99.99
2017-12-11T14:56:14.812Z,99.99
2017-12-11T14:57:24.794Z,99.99
2017-12-11T14:58:34.775Z,99.99
2017-12-11T14:59:44.757Z,99.99
2017-12-11T15:00:54.738Z,99.99
2017-12-11T15:02:04.718Z,99.99
2017-12-11T15:03:14.705Z,99.99
2017-12-11T15:04:24.690Z,99.99